sensor_id;sensor_type;location;lat;lon;timestamp;P1;durP1;ratioP1;P2;durP2;ratioP2
48361;SDS011;34510;51.888;5.670;2023-07-13T00:04:36;961.92;;;865.90;;
48361;SDS011;34510;51.888;5.670;2023-07-13T00:09:38;955.38;;;860.13;;
48361;SDS011;34510;51.888;5.670;2023-07-13T00:14:40;959.40;;;863.42;;
48361;SDS011;34510;51.888;5.670;2023-07-13T00:19:42;953.65;;;858.05;;
48361;SDS011;34510;51.888;5.670;2023-07-13T00:24:44;957.92;;;862.58;;
48361;SDS011;34510;51.888;5.670;2023-07-13T00:29:45;942.45;;;847.97;;
48361;SDS011;34510;51.888;5.670;2023-07-13T00:34:47;938.72;;;843.67;;
48361;SDS011;34510;51.888;5.670;2023-07-13T00:39:52;926.30;;;832.85;;
48361;SDS011;34510;51.888;5.670;2023-07-13T00:50:14;946.50;;;850.83;;
48361;SDS011;34510;51.888;5.670;2023-07-13T00:55:17;954.42;;;858.08;;
48361;SDS011;34510;51.888;5.670;2023-07-13T01:00:19;946.30;;;850.75;;
48361;SDS011;34510;51.888;5.670;2023-07-13T01:05:22;939.08;;;843.40;;
48361;SDS011;34510;51.888;5.670;2023-07-13T01:10:25;939.15;;;842.97;;
48361;SDS011;34510;51.888;5.670;2023-07-13T01:20:36;929.30;;;834.85;;
48361;SDS011;34510;51.888;5.670;2023-07-13T01:25:38;919.00;;;824.83;;
48361;SDS011;34510;51.888;5.670;2023-07-13T01:30:40;929.50;;;834.55;;
48361;SDS011;34510;51.888;5.670;2023-07-13T01:35:43;925.90;;;831.33;;
48361;SDS011;34510;51.888;5.670;2023-07-13T01:40:45;925.13;;;830.63;;
48361;SDS011;34510;51.888;5.670;2023-07-13T01:45:47;910.80;;;816.92;;
48361;SDS011;34510;51.888;5.670;2023-07-13T01:50:49;908.55;;;815.35;;
48361;SDS011;34510;51.888;5.670;2023-07-13T01:55:51;931.17;;;836.55;;
48361;SDS011;34510;51.888;5.670;2023-07-13T02:00:53;914.92;;;820.92;;
48361;SDS011;34510;51.888;5.670;2023-07-13T02:05:55;902.25;;;809.00;;
48361;SDS011;34510;51.888;5.670;2023-07-13T02:10:57;904.60;;;810.88;;
48361;SDS011;34510;51.888;5.670;2023-07-13T02:15:59;895.53;;;802.13;;
48361;SDS011;34510;51.888;5.670;2023-07-13T02:21:00;887.88;;;794.95;;
48361;SDS011;34510;51.888;5.670;2023-07-13T02:26:04;906.03;;;811.97;;
48361;SDS011;34510;51.888;5.670;2023-07-13T02:31:11;893.70;;;800.03;;
48361;SDS011;34510;51.888;5.670;2023-07-13T02:36:13;871.83;;;778.97;;
48361;SDS011;34510;51.888;5.670;2023-07-13T02:41:19;887.80;;;794.42;;
48361;SDS011;34510;51.888;5.670;2023-07-13T02:46:20;890.53;;;796.95;;
48361;SDS011;34510;51.888;5.670;2023-07-13T02:51:22;878.83;;;786.33;;
48361;SDS011;34510;51.888;5.670;2023-07-13T02:56:25;887.60;;;794.08;;
48361;SDS011;34510;51.888;5.670;2023-07-13T03:01:28;871.58;;;778.38;;
48361;SDS011;34510;51.888;5.670;2023-07-13T03:06:31;873.58;;;781.30;;
48361;SDS011;34510;51.888;5.670;2023-07-13T03:11:34;871.88;;;779.05;;
48361;SDS011;34510;51.888;5.670;2023-07-13T03:16:58;868.05;;;776.00;;
48361;SDS011;34510;51.888;5.670;2023-07-13T03:22:04;888.10;;;795.05;;
48361;SDS011;34510;51.888;5.670;2023-07-13T03:27:07;869.00;;;776.45;;
48361;SDS011;34510;51.888;5.670;2023-07-13T03:32:13;855.70;;;764.13;;
48361;SDS011;34510;51.888;5.670;2023-07-13T03:37:14;869.83;;;777.60;;
48361;SDS011;34510;51.888;5.670;2023-07-13T03:42:16;854.65;;;763.33;;
48361;SDS011;34510;51.888;5.670;2023-07-13T03:47:18;855.97;;;764.15;;
48361;SDS011;34510;51.888;5.670;2023-07-13T03:52:21;857.22;;;765.38;;
48361;SDS011;34510;51.888;5.670;2023-07-13T03:57:23;856.65;;;764.85;;
48361;SDS011;34510;51.888;5.670;2023-07-13T04:02:25;866.55;;;773.88;;
48361;SDS011;34510;51.888;5.670;2023-07-13T04:07:28;862.85;;;771.28;;
48361;SDS011;34510;51.888;5.670;2023-07-13T04:12:30;861.47;;;769.78;;
48361;SDS011;34510;51.888;5.670;2023-07-13T04:17:31;861.92;;;769.85;;
48361;SDS011;34510;51.888;5.670;2023-07-13T04:22:33;858.83;;;766.65;;
48361;SDS011;34510;51.888;5.670;2023-07-13T04:27:35;867.30;;;775.15;;
48361;SDS011;34510;51.888;5.670;2023-07-13T04:32:37;882.08;;;789.30;;
48361;SDS011;34510;51.888;5.670;2023-07-13T04:37:39;882.17;;;789.05;;
48361;SDS011;34510;51.888;5.670;2023-07-13T04:42:41;869.92;;;777.83;;
48361;SDS011;34510;51.888;5.670;2023-07-13T04:47:42;863.03;;;771.05;;
48361;SDS011;34510;51.888;5.670;2023-07-13T04:52:44;877.80;;;785.50;;
48361;SDS011;34510;51.888;5.670;2023-07-13T04:57:46;869.30;;;777.35;;
48361;SDS011;34510;51.888;5.670;2023-07-13T05:02:48;872.13;;;779.58;;
48361;SDS011;34510;51.888;5.670;2023-07-13T05:07:51;899.75;;;806.40;;
48361;SDS011;34510;51.888;5.670;2023-07-13T05:12:52;884.75;;;792.20;;
48361;SDS011;34510;51.888;5.670;2023-07-13T05:17:54;911.45;;;817.33;;
48361;SDS011;34510;51.888;5.670;2023-07-13T05:22:56;921.05;;;826.25;;
48361;SDS011;34510;51.888;5.670;2023-07-13T05:27:58;913.00;;;818.80;;
48361;SDS011;34510;51.888;5.670;2023-07-13T05:33:00;910.90;;;817.45;;
48361;SDS011;34510;51.888;5.670;2023-07-13T05:38:02;929.10;;;834.28;;
48361;SDS011;34510;51.888;5.670;2023-07-13T05:43:04;937.25;;;842.35;;
48361;SDS011;34510;51.888;5.670;2023-07-13T05:48:06;932.67;;;837.85;;
48361;SDS011;34510;51.888;5.670;2023-07-13T05:53:07;945.67;;;850.25;;
48361;SDS011;34510;51.888;5.670;2023-07-13T05:58:10;936.05;;;841.15;;
48361;SDS011;34510;51.888;5.670;2023-07-13T06:03:13;947.97;;;852.58;;
48361;SDS011;34510;51.888;5.670;2023-07-13T06:08:15;966.08;;;869.08;;
48361;SDS011;34510;51.888;5.670;2023-07-13T06:13:17;976.03;;;879.05;;
48361;SDS011;34510;51.888;5.670;2023-07-13T06:18:20;966.88;;;870.65;;
48361;SDS011;34510;51.888;5.670;2023-07-13T06:23:22;992.65;;;894.85;;
48361;SDS011;34510;51.888;5.670;2023-07-13T06:28:24;976.45;;;880.22;;
48361;SDS011;34510;51.888;5.670;2023-07-13T06:33:26;991.30;;;894.03;;
48361;SDS011;34510;51.888;5.670;2023-07-13T06:38:28;1020.03;;;920.63;;
48361;SDS011;34510;51.888;5.670;2023-07-13T06:43:30;994.30;;;896.50;;
48361;SDS011;34510;51.888;5.670;2023-07-13T06:48:33;997.05;;;899.30;;
48361;SDS011;34510;51.888;5.670;2023-07-13T06:53:35;998.55;;;900.75;;
48361;SDS011;34510;51.888;5.670;2023-07-13T06:58:37;1000.80;;;902.25;;
48361;SDS011;34510;51.888;5.670;2023-07-13T07:03:39;1002.33;;;904.08;;
48361;SDS011;34510;51.888;5.670;2023-07-13T07:08:41;1009.03;;;910.97;;
48361;SDS011;34510;51.888;5.670;2023-07-13T07:13:42;1018.45;;;919.85;;
48361;SDS011;34510;51.888;5.670;2023-07-13T07:18:44;1023.78;;;924.45;;
48361;SDS011;34510;51.888;5.670;2023-07-13T07:23:46;1028.88;;;929.75;;
48361;SDS011;34510;51.888;5.670;2023-07-13T07:28:48;1049.93;;;949.42;;
48361;SDS011;34510;51.888;5.670;2023-07-13T07:34:10;1035.55;;;935.83;;
48361;SDS011;34510;51.888;5.670;2023-07-13T07:39:12;1046.40;;;945.80;;
48361;SDS011;34510;51.888;5.670;2023-07-13T07:44:14;1060.63;;;959.17;;
48361;SDS011;34510;51.888;5.670;2023-07-13T07:49:16;1053.20;;;952.65;;
48361;SDS011;34510;51.888;5.670;2023-07-13T07:54:17;1062.30;;;961.05;;
48361;SDS011;34510;51.888;5.670;2023-07-13T07:59:39;1078.82;;;977.58;;
48361;SDS011;34510;51.888;5.670;2023-07-13T08:04:44;1081.57;;;979.17;;
48361;SDS011;34510;51.888;5.670;2023-07-13T08:09:51;1093.18;;;990.67;;
48361;SDS011;34510;51.888;5.670;2023-07-13T08:14:53;1088.57;;;986.58;;
48361;SDS011;34510;51.888;5.670;2023-07-13T08:19:58;1108.97;;;999.90;;
48361;SDS011;34510;51.888;5.670;2023-07-13T08:25:00;1096.40;;;994.30;;
48361;SDS011;34510;51.888;5.670;2023-07-13T08:30:02;1100.18;;;996.35;;
48361;SDS011;34510;51.888;5.670;2023-07-13T08:35:05;1100.50;;;996.58;;
48361;SDS011;34510;51.888;5.670;2023-07-13T08:40:08;1105.28;;;998.63;;
48361;SDS011;34510;51.888;5.670;2023-07-13T08:45:28;1109.97;;;999.90;;
48361;SDS011;34510;51.888;5.670;2023-07-13T08:50:32;1103.07;;;997.78;;
48361;SDS011;34510;51.888;5.670;2023-07-13T08:55:57;1110.70;;;999.90;;
48361;SDS011;34510;51.888;5.670;2023-07-13T09:06:08;1119.18;;;999.90;;
48361;SDS011;34510;51.888;5.670;2023-07-13T09:12:17;1135.40;;;999.90;;
48361;SDS011;34510;51.888;5.670;2023-07-13T09:16:44;1116.45;;;999.90;;
48361;SDS011;34510;51.888;5.670;2023-07-13T09:21:48;1117.97;;;999.90;;
48361;SDS011;34510;51.888;5.670;2023-07-13T09:26:52;1105.47;;;999.17;;
48361;SDS011;34510;51.888;5.670;2023-07-13T09:31:55;1090.30;;;989.33;;
48361;SDS011;34510;51.888;5.670;2023-07-13T09:37:02;1090.15;;;988.92;;
48361;SDS011;34510;51.888;5.670;2023-07-13T09:42:11;1079.65;;;979.08;;
48361;SDS011;34510;51.888;5.670;2023-07-13T09:52:19;1100.57;;;996.47;;
48361;SDS011;34510;51.888;5.670;2023-07-13T09:57:22;1098.32;;;996.30;;
48361;SDS011;34510;51.888;5.670;2023-07-13T10:02:42;1103.20;;;998.45;;
48361;SDS011;34510;51.888;5.670;2023-07-13T10:07:44;1110.95;;;999.90;;
48361;SDS011;34510;51.888;5.670;2023-07-13T10:12:46;1141.95;;;999.90;;
48361;SDS011;34510;51.888;5.670;2023-07-13T10:17:49;1149.47;;;999.90;;
48361;SDS011;34510;51.888;5.670;2023-07-13T10:22:57;1161.72;;;999.90;;
48361;SDS011;34510;51.888;5.670;2023-07-13T10:28:45;1151.10;;;999.90;;
48361;SDS011;34510;51.888;5.670;2023-07-13T10:33:26;1136.82;;;999.90;;
48361;SDS011;34510;51.888;5.670;2023-07-13T10:38:28;1126.45;;;999.90;;
48361;SDS011;34510;51.888;5.670;2023-07-13T10:48:34;1117.78;;;999.90;;
48361;SDS011;34510;51.888;5.670;2023-07-13T10:53:38;1120.28;;;999.90;;
48361;SDS011;34510;51.888;5.670;2023-07-13T10:58:44;1114.13;;;999.90;;
48361;SDS011;34510;51.888;5.670;2023-07-13T11:03:47;1117.78;;;999.90;;
48361;SDS011;34510;51.888;5.670;2023-07-13T11:08:52;1122.88;;;999.90;;
48361;SDS011;34510;51.888;5.670;2023-07-13T11:29:33;1135.00;;;999.90;;
48361;SDS011;34510;51.888;5.670;2023-07-13T11:34:38;1139.80;;;999.90;;
48361;SDS011;34510;51.888;5.670;2023-07-13T11:39:41;1156.10;;;999.90;;
48361;SDS011;34510;51.888;5.670;2023-07-13T11:44:49;1164.15;;;999.90;;
48361;SDS011;34510;51.888;5.670;2023-07-13T11:50:16;1176.30;;;999.90;;
48361;SDS011;34510;51.888;5.670;2023-07-13T11:55:20;1176.82;;;999.90;;
48361;SDS011;34510;51.888;5.670;2023-07-13T12:00:23;1176.85;;;999.90;;
48361;SDS011;34510;51.888;5.670;2023-07-13T12:05:25;1158.70;;;999.90;;
48361;SDS011;34510;51.888;5.670;2023-07-13T12:10:28;1157.00;;;999.90;;
48361;SDS011;34510;51.888;5.670;2023-07-13T12:15:34;1152.88;;;999.90;;
48361;SDS011;34510;51.888;5.670;2023-07-13T12:20:38;1142.80;;;999.90;;
48361;SDS011;34510;51.888;5.670;2023-07-13T12:25:40;1150.72;;;999.90;;
48361;SDS011;34510;51.888;5.670;2023-07-13T12:30:42;1149.15;;;999.90;;
48361;SDS011;34510;51.888;5.670;2023-07-13T12:35:49;1159.85;;;999.90;;
48361;SDS011;34510;51.888;5.670;2023-07-13T12:40:53;1169.72;;;999.90;;
48361;SDS011;34510;51.888;5.670;2023-07-13T12:51:00;1175.68;;;999.90;;
48361;SDS011;34510;51.888;5.670;2023-07-13T12:56:02;1183.20;;;999.90;;
48361;SDS011;34510;51.888;5.670;2023-07-13T13:01:05;1189.47;;;999.90;;
48361;SDS011;34510;51.888;5.670;2023-07-13T13:11:37;1193.40;;;999.90;;
48361;SDS011;34510;51.888;5.670;2023-07-13T13:16:48;1206.50;;;999.90;;
48361;SDS011;34510;51.888;5.670;2023-07-13T13:21:53;1206.32;;;999.90;;
48361;SDS011;34510;51.888;5.670;2023-07-13T13:26:55;1208.25;;;999.90;;
48361;SDS011;34510;51.888;5.670;2023-07-13T13:31:59;1197.10;;;999.90;;
48361;SDS011;34510;51.888;5.670;2023-07-13T13:37:01;1193.82;;;999.90;;
48361;SDS011;34510;51.888;5.670;2023-07-13T13:42:03;1187.45;;;999.90;;
48361;SDS011;34510;51.888;5.670;2023-07-13T13:52:26;1185.78;;;999.90;;
48361;SDS011;34510;51.888;5.670;2023-07-13T13:57:28;1200.05;;;999.90;;
48361;SDS011;34510;51.888;5.670;2023-07-13T14:02:31;1195.50;;;999.90;;
48361;SDS011;34510;51.888;5.670;2023-07-13T14:07:33;1201.70;;;999.90;;
48361;SDS011;34510;51.888;5.670;2023-07-13T14:12:35;1191.90;;;999.90;;
48361;SDS011;34510;51.888;5.670;2023-07-13T14:17:37;1186.13;;;999.90;;
48361;SDS011;34510;51.888;5.670;2023-07-13T14:22:45;1176.97;;;999.90;;
48361;SDS011;34510;51.888;5.670;2023-07-13T14:27:53;1175.25;;;999.90;;
48361;SDS011;34510;51.888;5.670;2023-07-13T14:32:55;1172.97;;;999.90;;
48361;SDS011;34510;51.888;5.670;2023-07-13T14:37:58;1166.53;;;999.90;;
48361;SDS011;34510;51.888;5.670;2023-07-13T14:43:00;1170.65;;;999.90;;
48361;SDS011;34510;51.888;5.670;2023-07-13T14:48:02;1174.80;;;999.90;;
48361;SDS011;34510;51.888;5.670;2023-07-13T14:53:07;1166.57;;;999.90;;
48361;SDS011;34510;51.888;5.670;2023-07-13T14:58:10;1173.10;;;999.90;;
48361;SDS011;34510;51.888;5.670;2023-07-13T15:03:30;1174.72;;;999.90;;
48361;SDS011;34510;51.888;5.670;2023-07-13T15:08:32;1166.43;;;999.90;;
48361;SDS011;34510;51.888;5.670;2023-07-13T15:13:34;1158.85;;;999.90;;
48361;SDS011;34510;51.888;5.670;2023-07-13T15:18:39;1153.18;;;999.90;;
48361;SDS011;34510;51.888;5.670;2023-07-13T15:23:41;1154.00;;;999.90;;
48361;SDS011;34510;51.888;5.670;2023-07-13T15:28:44;1144.68;;;999.90;;
48361;SDS011;34510;51.888;5.670;2023-07-13T15:33:46;1138.53;;;999.90;;
48361;SDS011;34510;51.888;5.670;2023-07-13T15:38:51;1127.85;;;999.90;;
48361;SDS011;34510;51.888;5.670;2023-07-13T15:43:54;1111.93;;;999.90;;
48361;SDS011;34510;51.888;5.670;2023-07-13T15:48:57;1119.18;;;999.90;;
48361;SDS011;34510;51.888;5.670;2023-07-13T15:54:00;1121.75;;;999.90;;
48361;SDS011;34510;51.888;5.670;2023-07-13T15:59:05;1121.15;;;999.90;;
48361;SDS011;34510;51.888;5.670;2023-07-13T16:04:08;1118.85;;;999.90;;
48361;SDS011;34510;51.888;5.670;2023-07-13T16:09:13;1121.47;;;999.90;;
48361;SDS011;34510;51.888;5.670;2023-07-13T16:14:18;1124.20;;;999.90;;
48361;SDS011;34510;51.888;5.670;2023-07-13T16:19:22;1125.97;;;999.90;;
48361;SDS011;34510;51.888;5.670;2023-07-13T16:24:31;1130.50;;;999.90;;
48361;SDS011;34510;51.888;5.670;2023-07-13T16:29:33;1128.53;;;999.90;;
48361;SDS011;34510;51.888;5.670;2023-07-13T16:34:44;1130.85;;;999.90;;
48361;SDS011;34510;51.888;5.670;2023-07-13T16:39:57;1128.38;;;999.90;;
48361;SDS011;34510;51.888;5.670;2023-07-13T16:45:01;1135.18;;;999.90;;
48361;SDS011;34510;51.888;5.670;2023-07-13T16:50:08;1135.43;;;999.90;;
48361;SDS011;34510;51.888;5.670;2023-07-13T16:55:12;1132.70;;;999.90;;
48361;SDS011;34510;51.888;5.670;2023-07-13T17:00:26;1137.35;;;999.90;;
48361;SDS011;34510;51.888;5.670;2023-07-13T17:05:32;1127.63;;;999.90;;
48361;SDS011;34510;51.888;5.670;2023-07-13T17:10:37;1137.18;;;999.90;;
48361;SDS011;34510;51.888;5.670;2023-07-13T17:15:40;1136.63;;;999.90;;
48361;SDS011;34510;51.888;5.670;2023-07-13T17:20:43;1140.93;;;999.90;;
48361;SDS011;34510;51.888;5.670;2023-07-13T17:25:47;1146.43;;;999.90;;
48361;SDS011;34510;51.888;5.670;2023-07-13T17:30:51;1143.68;;;999.90;;
48361;SDS011;34510;51.888;5.670;2023-07-13T17:35:54;1147.57;;;999.90;;
48361;SDS011;34510;51.888;5.670;2023-07-13T17:40:56;1139.53;;;999.90;;
48361;SDS011;34510;51.888;5.670;2023-07-13T17:45:58;1140.38;;;999.90;;
48361;SDS011;34510;51.888;5.670;2023-07-13T17:51:02;1138.32;;;999.90;;
48361;SDS011;34510;51.888;5.670;2023-07-13T17:56:04;1132.07;;;999.90;;
48361;SDS011;34510;51.888;5.670;2023-07-13T18:01:10;1134.82;;;999.90;;
48361;SDS011;34510;51.888;5.670;2023-07-13T18:11:24;1137.68;;;999.90;;
48361;SDS011;34510;51.888;5.670;2023-07-13T18:16:27;1136.78;;;999.90;;
48361;SDS011;34510;51.888;5.670;2023-07-13T18:21:30;1134.65;;;999.90;;
48361;SDS011;34510;51.888;5.670;2023-07-13T18:26:32;1137.03;;;999.90;;
48361;SDS011;34510;51.888;5.670;2023-07-13T18:31:35;1124.78;;;999.90;;
48361;SDS011;34510;51.888;5.670;2023-07-13T18:36:37;1128.25;;;999.90;;
48361;SDS011;34510;51.888;5.670;2023-07-13T18:41:45;1129.78;;;999.90;;
48361;SDS011;34510;51.888;5.670;2023-07-13T18:46:47;1120.00;;;999.90;;
48361;SDS011;34510;51.888;5.670;2023-07-13T18:51:50;1121.93;;;999.90;;
48361;SDS011;34510;51.888;5.670;2023-07-13T18:56:52;1119.15;;;999.90;;
48361;SDS011;34510;51.888;5.670;2023-07-13T19:01:54;1118.63;;;999.90;;
48361;SDS011;34510;51.888;5.670;2023-07-13T19:06:56;1113.10;;;999.90;;
48361;SDS011;34510;51.888;5.670;2023-07-13T19:11:58;1111.15;;;999.90;;
48361;SDS011;34510;51.888;5.670;2023-07-13T19:17:00;1107.63;;;999.78;;
48361;SDS011;34510;51.888;5.670;2023-07-13T19:22:02;1108.35;;;999.88;;
48361;SDS011;34510;51.888;5.670;2023-07-13T19:27:12;1108.95;;;999.90;;
48361;SDS011;34510;51.888;5.670;2023-07-13T19:32:15;1105.32;;;999.28;;
48361;SDS011;34510;51.888;5.670;2023-07-13T19:37:22;1099.80;;;997.42;;
48361;SDS011;34510;51.888;5.670;2023-07-13T19:42:27;1095.05;;;994.55;;
48361;SDS011;34510;51.888;5.670;2023-07-13T19:47:30;1088.95;;;988.78;;
48361;SDS011;34510;51.888;5.670;2023-07-13T19:52:33;1081.60;;;981.53;;
48361;SDS011;34510;51.888;5.670;2023-07-13T19:57:34;1080.07;;;980.03;;
48361;SDS011;34510;51.888;5.670;2023-07-13T20:02:37;1078.03;;;978.47;;
48361;SDS011;34510;51.888;5.670;2023-07-13T20:07:39;1064.63;;;965.50;;
48361;SDS011;34510;51.888;5.670;2023-07-13T20:12:44;1067.43;;;968.25;;
48361;SDS011;34510;51.888;5.670;2023-07-13T20:17:48;1058.00;;;959.45;;
48361;SDS011;34510;51.888;5.670;2023-07-13T20:22:51;1060.18;;;961.42;;
48361;SDS011;34510;51.888;5.670;2023-07-13T20:27:54;1062.55;;;963.55;;
48361;SDS011;34510;51.888;5.670;2023-07-13T20:32:56;1067.13;;;967.88;;
48361;SDS011;34510;51.888;5.670;2023-07-13T20:37:59;1065.18;;;965.72;;
48361;SDS011;34510;51.888;5.670;2023-07-13T20:43:01;1052.88;;;954.08;;
48361;SDS011;34510;51.888;5.670;2023-07-13T20:53:25;1043.60;;;945.50;;
48361;SDS011;34510;51.888;5.670;2023-07-13T20:58:30;1038.07;;;939.97;;
48361;SDS011;34510;51.888;5.670;2023-07-13T21:03:32;1037.78;;;939.58;;
48361;SDS011;34510;51.888;5.670;2023-07-13T21:08:34;1028.15;;;930.70;;
48361;SDS011;34510;51.888;5.670;2023-07-13T21:13:36;1030.70;;;932.72;;
48361;SDS011;34510;51.888;5.670;2023-07-13T21:18:38;1035.93;;;937.72;;
48361;SDS011;34510;51.888;5.670;2023-07-13T21:23:41;1022.13;;;924.58;;
48361;SDS011;34510;51.888;5.670;2023-07-13T21:28:44;1027.05;;;929.25;;
48361;SDS011;34510;51.888;5.670;2023-07-13T21:33:46;1021.08;;;923.92;;
48361;SDS011;34510;51.888;5.670;2023-07-13T21:38:52;1009.22;;;911.95;;
48361;SDS011;34510;51.888;5.670;2023-07-13T21:43:55;1017.70;;;919.95;;
48361;SDS011;34510;51.888;5.670;2023-07-13T21:48:57;1016.13;;;918.67;;
48361;SDS011;34510;51.888;5.670;2023-07-13T21:53:59;1010.88;;;913.95;;
48361;SDS011;34510;51.888;5.670;2023-07-13T21:59:03;1013.58;;;915.88;;
48361;SDS011;34510;51.888;5.670;2023-07-13T22:04:08;1021.20;;;923.58;;
48361;SDS011;34510;51.888;5.670;2023-07-13T22:09:15;1017.92;;;920.10;;
48361;SDS011;34510;51.888;5.670;2023-07-13T22:14:18;1014.63;;;917.58;;
48361;SDS011;34510;51.888;5.670;2023-07-13T22:19:20;1007.22;;;910.40;;
48361;SDS011;34510;51.888;5.670;2023-07-13T22:24:24;1009.00;;;911.92;;
48361;SDS011;34510;51.888;5.670;2023-07-13T22:29:27;1002.70;;;905.67;;
48361;SDS011;34510;51.888;5.670;2023-07-13T22:34:31;1007.33;;;911.15;;
48361;SDS011;34510;51.888;5.670;2023-07-13T22:39:33;1006.10;;;908.95;;
48361;SDS011;34510;51.888;5.670;2023-07-13T22:44:35;1003.75;;;907.45;;
48361;SDS011;34510;51.888;5.670;2023-07-13T22:49:38;1004.33;;;908.00;;
48361;SDS011;34510;51.888;5.670;2023-07-13T22:54:40;1006.20;;;909.65;;
48361;SDS011;34510;51.888;5.670;2023-07-13T22:59:42;1011.05;;;914.30;;
48361;SDS011;34510;51.888;5.670;2023-07-13T23:04:44;1012.10;;;915.17;;
48361;SDS011;34510;51.888;5.670;2023-07-13T23:09:46;1016.83;;;919.25;;
48361;SDS011;34510;51.888;5.670;2023-07-13T23:15:08;1006.03;;;909.38;;
48361;SDS011;34510;51.888;5.670;2023-07-13T23:20:20;1012.95;;;915.88;;
48361;SDS011;34510;51.888;5.670;2023-07-13T23:25:24;1014.15;;;916.95;;
48361;SDS011;34510;51.888;5.670;2023-07-13T23:30:27;999.83;;;903.63;;
48361;SDS011;34510;51.888;5.670;2023-07-13T23:35:31;994.55;;;898.30;;
48361;SDS011;34510;51.888;5.670;2023-07-13T23:40:34;997.78;;;901.40;;
48361;SDS011;34510;51.888;5.670;2023-07-13T23:45:37;1001.95;;;905.55;;
48361;SDS011;34510;51.888;5.670;2023-07-13T23:50:40;1005.78;;;909.13;;
48361;SDS011;34510;51.888;5.670;2023-07-13T23:55:43;1003.60;;;906.85;;
